Time;durP1;ratioP1;P1;durP2;ratioP2;P2;SDS_P1;SDS_P2;PMS_P1;PMS_P2;Temp;Humidity;BMP_temperature;BMP_pressure;BME280_temperature;BME280_humidity;BME280_pressure;Samples;Min_cycle;Max_cycle;Signal;HPM_P1;HPM_P2
2021/08/23 00:00:34;;;;;;;8.38;7.35;;;;;;;18.15;70.64;98536.00;529674;1093;100989;-42
2021/08/23 00:10:41;;;;;;;7.90;7.10;;;;;;;18.24;70.55;98547.72;529735;1093;101059;-42
2021/08/23 00:20:55;;;;;;;8.63;7.73;;;;;;;18.37;70.31;98552.41;529653;1092;101604;-42
2021/08/23 00:31:02;;;;;;;7.90;7.10;;;;;;;18.60;70.61;98544.69;529742;1093;100961;-42
2021/08/23 00:41:11;;;;;;;11.00;7.68;;;;;;;18.47;70.23;98534.66;529694;1092;101145;-42
2021/08/23 00:51:19;;;;;;;11.77;8.57;;;;;;;18.20;70.67;98535.95;529685;1092;101056;-42
2021/08/23 01:01:32;;;;;;;9.20;7.27;;;;;;;18.23;70.80;98538.09;529713;1093;101118;-42
2021/08/23 01:11:46;;;;;;;8.67;7.70;;;;;;;18.30;70.58;98527.84;529681;1093;101618;-43
2021/08/23 01:21:56;;;;;;;9.73;7.20;;;;;;;18.32;71.26;98524.89;529732;1091;101040;-42
2021/08/23 01:32:18;;;;;;;7.60;6.17;;;;;;;18.57;71.33;98524.63;529799;1092;100996;-42
2021/08/23 01:42:27;;;;;;;9.63;8.23;;;;;;;18.34;71.31;98517.38;529676;1092;101345;-42
2021/08/23 01:52:35;;;;;;;10.17;8.97;;;;;;;18.00;71.29;98494.14;529784;1093;100740;-42
2021/08/23 02:02:42;;;;;;;9.88;8.85;;;;;;;17.86;72.04;98492.38;529678;1093;101918;-42
2021/08/23 02:12:51;;;;;;;10.85;9.00;;;;;;;18.25;72.35;98501.14;529763;1092;101164;-42
2021/08/23 02:22:58;;;;;;;12.90;9.07;;;;;;;17.94;72.02;98484.55;529763;1093;100968;-43
2021/08/23 02:33:31;;;;;;;10.50;8.47;;;;;;;18.08;72.50;98477.47;529716;1091;101081;-41
2021/08/23 02:43:38;;;;;;;10.15;8.15;;;;;;;17.84;72.29;98473.94;529740;1092;101040;-41
2021/08/23 02:53:45;;;;;;;13.27;9.07;;;;;;;17.70;73.13;98456.94;529723;1091;101599;-41
2021/08/23 03:03:52;;;;;;;11.05;9.95;;;;;;;17.67;73.26;98447.60;529752;1092;100989;-40
2021/08/23 03:14:00;;;;;;;13.70;8.87;;;;;;;17.78;73.61;98454.47;529698;1093;101038;-41
2021/08/23 03:24:08;;;;;;;11.40;10.28;;;;;;;17.72;73.76;98471.62;529692;1091;101019;-41
2021/08/23 03:34:15;;;;;;;12.37;11.10;;;;;;;17.72;73.95;98490.34;529696;1093;101036;-40
2021/08/23 03:44:23;;;;;;;16.63;13.10;;;;;;;17.73;74.12;98524.02;529699;1093;101887;-41
2021/08/23 03:54:31;;;;;;;12.27;10.97;;;;;;;17.64;74.05;98532.89;529736;1092;101145;-41
2021/08/23 04:04:39;;;;;;;13.33;12.00;;;;;;;17.68;74.24;98518.72;529764;1092;101492;-41
2021/08/23 04:14:45;;;;;;;;;;;;;;;17.67;74.38;98514.45;529697;1093;101066;-41
2021/08/23 04:24:52;;;;;;;15.20;12.20;;;;;;;17.60;74.03;98503.24;529722;1092;101023;-41
2021/08/23 04:35:00;;;;;;;14.40;12.15;;;;;;;17.68;74.66;98513.37;529710;1092;101565;-41
2021/08/23 04:45:07;;;;;;;;;;;;;;;17.66;74.52;98515.49;529775;1091;100754;-42
2021/08/23 04:55:17;;;;;;;15.33;11.33;;;;;;;17.59;74.95;98504.33;529723;1091;100986;-41
2021/08/23 05:05:25;;;;;;;14.63;10.87;;;;;;;17.78;74.84;98499.14;529703;1091;101022;-41
2021/08/23 05:15:32;;;;;;;16.68;13.43;;;;;;;17.62;74.53;98505.64;529703;1093;100691;-42
2021/08/23 05:25:41;;;;;;;18.55;13.05;;;;;;;17.66;74.93;98494.10;529681;1092;101513;-41
2021/08/23 05:35:48;;;;;;;16.63;11.88;;;;;;;17.75;74.91;98487.13;529737;1093;101034;-42
2021/08/23 05:45:57;;;;;;;19.50;12.07;;;;;;;17.82;75.01;98486.00;529684;1092;101055;-42
2021/08/23 05:56:05;;;;;;;16.83;12.63;;;;;;;17.89;74.71;98489.95;529707;1091;101009;-42
2021/08/23 06:06:13;;;;;;;11.73;10.55;;;;;;;17.74;75.13;98516.80;529717;1093;100730;-42
2021/08/23 06:16:19;;;;;;;14.37;12.60;;;;;;;17.88;75.48;98516.97;529762;1092;101459;-42
2021/08/23 06:26:27;;;;;;;14.88;13.18;;;;;;;18.01;75.33;98529.72;529718;1093;101007;-42
2021/08/23 06:36:36;;;;;;;15.30;11.83;;;;;;;18.00;75.11;98528.13;529755;1092;101027;-42
2021/08/23 06:46:44;;;;;;;19.70;12.93;;;;;;;18.03;75.36;98525.69;529704;1092;100975;-41
2021/08/23 06:56:51;;;;;;;15.13;12.80;;;;;;;18.14;75.76;98531.73;529686;1092;101494;-42
2021/08/23 07:07:02;;;;;;;21.98;13.98;;;;;;;18.35;75.36;98525.13;529669;1092;101856;-42
2021/08/23 07:17:10;;;;;;;19.47;13.33;;;;;;;18.43;75.59;98534.41;529700;1093;101094;-42
2021/08/23 07:27:18;;;;;;;17.00;15.20;;;;;;;18.36;75.67;98534.74;529661;1092;101127;-42
2021/08/23 07:37:25;;;;;;;23.75;16.68;;;;;;;18.49;75.88;98548.56;529683;1092;101008;-42
2021/08/23 07:47:34;;;;;;;20.18;15.40;;;;;;;18.61;76.20;98548.95;529580;1092;101034;-42
2021/08/23 07:57:46;;;;;;;21.70;14.83;;;;;;;18.82;75.48;98561.09;529647;1093;101850;-42
2021/08/23 08:07:54;;;;;;;22.77;15.73;;;;;;;19.01;75.74;98556.59;529701;1092;100998;-44
2021/08/23 08:18:03;;;;;;;19.00;15.17;;;;;;;19.12;75.70;98554.56;529737;1093;101044;-42
2021/08/23 08:28:10;;;;;;;20.83;15.47;;;;;;;19.29;75.33;98546.05;529703;1092;101084;-42
2021/08/23 08:38:43;;;;;;;21.70;18.37;;;;;;;19.30;75.08;98553.80;529734;1092;100712;-42
2021/08/23 08:48:51;;;;;;;21.97;18.63;;;;;;;19.12;75.39;98559.13;529668;1092;101418;-42
2021/08/23 08:59:00;;;;;;;21.70;16.87;;;;;;;19.25;75.36;98555.76;529487;1092;101055;-42
2021/08/23 09:09:13;;;;;;;22.50;16.73;;;;;;;19.37;75.37;98566.84;529711;1093;100761;-42
2021/08/23 09:19:29;;;;;;;21.80;17.00;;;;;;;19.27;75.11;98559.75;529672;1093;101371;-42
2021/08/23 09:29:59;;;;;;;25.40;15.30;;;;;;;19.28;74.94;98555.19;529727;1092;101115;-42
2021/08/23 09:40:17;;;;;;;16.17;14.47;;;;;;;19.37;74.98;98560.69;529684;1093;101604;-42
2021/08/23 09:50:25;;;;;;;14.57;12.77;;;;;;;19.34;75.00;98564.75;529694;1092;100984;-43
2021/08/23 10:00:33;;;;;;;15.35;13.63;;;;;;;19.54;75.18;98563.71;529120;1093;101106;-42
2021/08/23 10:10:42;;;;;;;14.20;11.90;;;;;;;19.74;75.06;98565.31;529725;1092;101001;-42
2021/08/23 10:20:51;;;;;;;14.93;13.43;;;;;;;19.76;75.16;98569.30;529661;1092;101083;-42
2021/08/23 10:31:08;;;;;;;16.45;13.40;;;;;;;19.88;74.73;98577.72;529684;1092;101615;-42
2021/08/23 10:41:17;;;;;;;12.70;11.27;;;;;;;20.12;75.26;98574.93;529684;1092;101251;-42
2021/08/23 10:51:37;;;;;;;11.87;10.60;;;;;;;20.05;74.65;98569.12;529748;1093;101133;-43
2021/08/23 11:01:56;;;;;;;12.87;11.57;;;;;;;20.14;74.82;98562.01;529707;1092;101109;-42
2021/08/23 11:12:15;;;;;;;10.70;9.60;;;;;;;20.31;74.83;98561.44;529722;1092;101088;-43
2021/08/23 11:22:20;;;;;;;;;;;;;;;20.31;74.80;98558.75;529705;1093;102889;-43
2021/08/23 11:32:31;;;;;;;12.27;11.10;;;;;;;20.19;74.70;98563.80;529719;1092;100925;-42
2021/08/23 11:42:39;;;;;;;11.37;10.17;;;;;;;20.13;74.61;98546.99;529711;1093;100995;-42
2021/08/23 11:53:04;;;;;;;11.10;8.43;;;;;;;20.18;75.22;98554.16;529678;1093;100827;-42
2021/08/23 12:03:15;;;;;;;9.57;8.57;;;;;;;20.35;75.38;98548.25;529719;1092;101108;-40
2021/08/23 12:13:25;;;;;;;7.50;6.80;;;;;;;20.57;75.16;98542.22;529693;1092;101975;-40
2021/08/23 12:24:00;;;;;;;6.87;5.33;;;;;;;21.20;74.89;98536.15;529703;1093;101234;-40
2021/08/23 12:34:19;;;;;;;7.33;6.33;;;;;;;21.31;75.10;98540.27;529787;1093;101305;-40
2021/08/23 12:44:27;;;;;;;6.37;5.90;;;;;;;21.95;74.48;98541.73;529662;1092;101024;-40
2021/08/23 12:54:34;;;;;;;5.30;4.93;;;;;;;22.26;73.75;98541.03;529692;1093;100968;-40
2021/08/23 13:04:42;;;;;;;6.50;5.20;;;;;;;22.13;73.76;98531.91;529706;1092;101593;-40
2021/08/23 13:14:49;;;;;;;7.63;5.37;;;;;;;21.85;73.09;98525.05;529670;1092;101029;-40
2021/08/23 13:24:55;;;;;;;5.70;5.13;;;;;;;21.92;72.88;98520.02;529732;1093;100970;-40
2021/08/23 13:35:03;;;;;;;5.67;4.93;;;;;;;21.88;72.86;98510.97;529711;1093;100936;-40
2021/08/23 13:55:17;;;;;;;;;;;;;;;21.22;72.25;98521.30;529675;1092;101676;-41
2021/08/23 14:05:25;;;;;;;9.33;5.35;;;;;;;20.98;72.56;98509.98;529684;1093;101040;-41
2021/08/23 14:15:33;;;;;;;5.47;4.97;;;;;;;21.07;72.82;98514.38;529727;1092;101231;-41
2021/08/23 14:25:42;;;;;;;5.33;4.93;;;;;;;21.31;72.78;98510.68;529741;1093;101004;-41
2021/08/23 14:35:49;;;;;;;5.68;5.18;;;;;;;21.47;72.48;98513.80;529728;1093;101177;-41
2021/08/23 14:46:21;;;;;;;7.30;6.40;;;;;;;21.44;72.28;98520.59;529662;1093;101990;-41
2021/08/23 14:56:33;;;;;;;7.17;6.57;;;;;;;21.22;72.24;98509.75;529697;1092;101298;-41
2021/08/23 15:06:41;;;;;;;6.43;5.80;;;;;;;21.25;72.32;98520.73;529697;1093;101041;-41
2021/08/23 15:16:49;;;;;;;5.60;5.10;;;;;;;21.12;72.23;98519.64;529700;1093;101367;-41
2021/08/23 15:26:55;;;;;;;;;;;;;;;20.81;72.13;98527.50;529741;1093;100995;-41
2021/08/23 15:37:03;;;;;;;6.98;5.30;;;;;;;20.54;72.35;98527.49;529743;1093;102010;-41
2021/08/23 15:47:10;;;;;;;5.90;5.30;;;;;;;20.33;72.05;98534.29;529695;1092;100962;-41
2021/08/23 15:57:16;;;;;;;7.83;4.58;;;;;;;20.21;72.47;98537.46;529685;1093;101488;-42
2021/08/23 16:07:24;;;;;;;4.57;4.10;;;;;;;20.11;72.71;98526.88;529703;1093;101054;-42
2021/08/23 16:17:33;;;;;;;8.83;4.57;;;;;;;20.19;72.76;98527.02;529738;1093;101062;-42
2021/08/23 16:27:39;;;;;;;5.20;4.67;;;;;;;20.05;73.00;98520.80;529681;1092;101486;-42
2021/08/23 16:37:47;;;;;;;4.93;4.47;;;;;;;19.83;73.07;98507.21;529716;1093;101044;-42
2021/08/23 16:47:56;;;;;;;6.47;4.47;;;;;;;19.77;72.61;98516.44;529763;1092;100992;-41
2021/08/23 16:58:04;;;;;;;5.27;4.50;;;;;;;19.60;73.23;98516.95;529688;1093;100814;-46
2021/08/23 17:08:12;;;;;;;5.17;4.77;;;;;;;19.45;72.96;98519.84;529728;1093;101066;-41
2021/08/23 17:18:19;;;;;;;6.80;4.60;;;;;;;19.27;73.50;98524.09;529676;1093;101848;-41
2021/08/23 17:28:27;;;;;;;7.05;5.93;;;;;;;19.25;73.64;98528.95;529730;1093;101047;-42
2021/08/23 17:38:35;;;;;;;11.25;6.50;;;;;;;19.12;73.54;98513.57;529752;1093;101032;-41
2021/08/23 17:48:42;;;;;;;6.47;5.87;;;;;;;19.04;74.04;98514.22;529652;1092;100935;-41
2021/08/23 17:58:50;;;;;;;8.18;6.35;;;;;;;18.78;73.99;98517.20;529684;1093;101063;-42
2021/08/23 18:08:57;;;;;;;8.30;5.50;;;;;;;18.65;74.13;98542.78;529638;1092;101589;-42
2021/08/23 18:19:06;;;;;;;10.37;7.40;;;;;;;18.60;74.76;98553.52;529733;1093;101043;-41
2021/08/23 18:29:14;;;;;;;8.90;6.70;;;;;;;18.62;75.12;98564.77;529715;1093;101050;-41
2021/08/23 18:39:22;;;;;;;8.58;7.60;;;;;;;18.56;74.70;98554.38;529671;1093;101076;-42
2021/08/23 18:49:29;;;;;;;10.28;7.80;;;;;;;18.39;75.34;98557.47;529712;1092;101323;-40
2021/08/23 18:59:37;;;;;;;14.35;12.08;;;;;;;18.37;75.37;98570.34;529687;1092;101595;-41
2021/08/23 19:09:45;;;;;;;10.43;9.30;;;;;;;18.32;75.56;98573.07;529694;1093;101008;-41
2021/08/23 19:19:54;;;;;;;10.15;9.13;;;;;;;18.29;75.77;98576.31;529697;1093;100990;-41
2021/08/23 19:30:02;;;;;;;8.40;7.63;;;;;;;18.06;75.82;98581.31;529659;1093;100988;-41
2021/08/23 19:40:11;;;;;;;10.15;8.28;;;;;;;17.89;75.81;98574.74;529700;1093;101183;-41
2021/08/23 19:50:19;;;;;;;20.33;16.90;;;;;;;17.85;75.76;98569.16;529705;1093;101997;-41
2021/08/23 20:00:30;;;;;;;9.40;8.43;;;;;;;17.79;75.75;98570.27;529728;1092;101028;-41
2021/08/23 20:10:39;;;;;;;7.60;6.33;;;;;;;17.80;76.65;98561.17;529719;1093;101034;-41
2021/08/23 20:20:50;;;;;;;7.00;6.30;;;;;;;17.79;76.05;98554.23;529707;1093;101173;-41
2021/08/23 20:30:58;;;;;;;7.23;6.47;;;;;;;17.77;76.19;98567.08;529681;1092;100993;-41
2021/08/23 20:41:11;;;;;;;9.50;6.87;;;;;;;17.81;76.21;98565.45;529691;1093;101604;-41
2021/08/23 20:51:44;;;;;;;8.80;6.50;;;;;;;17.70;76.59;98563.89;529717;1092;101114;-41
2021/08/23 21:01:52;;;;;;;7.60;6.87;;;;;;;17.43;75.96;98565.09;529730;1093;101629;-41
2021/08/23 21:12:00;;;;;;;7.80;7.00;;;;;;;17.46;76.59;98545.03;529704;1093;101018;-42
2021/08/23 21:22:06;;;;;;;;;;;;;;;17.49;76.50;98544.47;529750;1093;101032;-41
2021/08/23 21:32:14;;;;;;;10.87;8.90;;;;;;;17.49;76.85;98536.45;529718;1092;102495;-41
2021/08/23 21:42:23;;;;;;;11.33;8.55;;;;;;;17.54;76.36;98540.99;529751;1093;100990;-41
2021/08/23 21:52:30;;;;;;;10.27;8.70;;;;;;;17.58;76.51;98534.81;529721;1092;101033;-41
2021/08/23 22:02:39;;;;;;;10.20;8.95;;;;;;;17.53;76.65;98542.06;529674;1093;100756;-41
2021/08/23 22:12:53;;;;;;;10.93;9.70;;;;;;;17.61;77.22;98544.15;529703;1092;101155;-41
2021/08/23 22:23:01;;;;;;;13.43;9.60;;;;;;;17.58;76.91;98558.08;529655;1093;101627;-42
2021/08/23 22:33:09;;;;;;;10.63;8.97;;;;;;;17.57;76.61;98549.25;529697;1092;101012;-41
2021/08/23 22:43:17;;;;;;;13.60;11.07;;;;;;;17.50;77.02;98551.41;529718;1093;100910;-41
2021/08/23 22:53:25;;;;;;;11.83;10.25;;;;;;;17.38;76.47;98551.77;529678;1092;101004;-41
2021/08/23 23:03:33;;;;;;;12.43;10.20;;;;;;;17.36;77.27;98553.91;529698;1093;101226;-41
2021/08/23 23:13:41;;;;;;;13.70;12.30;;;;;;;17.36;77.16;98548.56;529647;1092;101527;-41
2021/08/23 23:23:48;;;;;;;13.60;12.13;;;;;;;17.30;76.63;98556.89;529739;1092;101443;-42
2021/08/23 23:33:57;;;;;;;12.27;10.47;;;;;;;17.21;77.06;98551.30;529726;1093;100987;-41
2021/08/23 23:44:03;;;;;;;11.20;9.50;;;;;;;17.15;77.34;98555.88;529630;1093;101420;-41
2021/08/23 23:54:11;;;;;;;11.85;10.65;;;;;;;17.09;77.39;98551.64;529730;1093;101042;-41
